createdAt,value
2023-11-05T00:01:24.909Z,89.23
2023-11-05T00:03:51.756Z,89.82
2023-11-05T00:06:18.399Z,88.71
2023-11-05T00:08:45.016Z,89.09
2023-11-05T00:11:11.641Z,88.71
2023-11-05T00:13:38.395Z,88.98
2023-11-05T00:16:05.517Z,89.82
2023-11-05T00:18:32.240Z,88.75
2023-11-05T00:20:58.910Z,88.77
2023-11-05T00:23:25.670Z,86.84
2023-11-05T00:25:53.714Z,87.82
2023-11-05T00:28:20.326Z,88.48
2023-11-05T00:30:46.960Z,90.42
2023-11-05T00:33:13.645Z,89.46
2023-11-05T00:35:40.478Z,89.15
2023-11-05T00:38:07.041Z,88.67
2023-11-05T00:40:33.490Z,88.89
2023-11-05T00:43:00.043Z,88.97
2023-11-05T00:45:26.486Z,88.59
2023-11-05T00:47:53.925Z,88.67
2023-11-05T00:50:20.541Z,88.35
2023-11-05T00:52:47.037Z,88.66
2023-11-05T00:55:13.518Z,89.84
2023-11-05T00:57:40.024Z,89.18
2023-11-05T01:00:16.532Z,89.33
2023-11-05T01:02:49.993Z,89.00
2023-11-05T01:05:17.368Z,90.57
2023-11-05T01:07:44.164Z,90.12
2023-11-05T01:10:10.986Z,92.04
2023-11-05T01:12:37.527Z,92.54
2023-11-05T01:15:06.941Z,93.61
2023-11-05T01:17:33.501Z,94.38
2023-11-05T01:19:59.915Z,93.77
2023-11-05T01:22:27.241Z,94.37
2023-11-05T01:24:53.790Z,94.34
2023-11-05T01:27:20.274Z,95.07
2023-11-05T01:29:47.208Z,96.21
2023-11-05T01:32:13.716Z,96.52
2023-11-05T01:34:40.156Z,95.90
2023-11-05T01:37:06.736Z,96.96
2023-11-05T01:39:33.269Z,96.88
2023-11-05T01:41:59.846Z,96.28
2023-11-05T01:44:26.258Z,96.80
2023-11-05T01:46:53.459Z,95.79
2023-11-05T01:49:20.140Z,95.18
2023-11-05T01:51:47.581Z,94.93
2023-11-05T01:54:14.181Z,96.23
2023-11-05T01:56:40.784Z,96.88
2023-11-05T01:59:07.353Z,97.87
2023-11-05T02:01:34.305Z,98.23
2023-11-05T02:04:01.147Z,97.59
2023-11-05T02:06:27.754Z,98.21
2023-11-05T02:08:54.369Z,99.11
2023-11-05T02:11:20.947Z,100.00
2023-11-05T02:13:52.652Z,100.00
2023-11-05T02:16:23.734Z,100.00
2023-11-05T02:18:50.853Z,100.00
2023-11-05T02:21:31.964Z,100.00
2023-11-05T02:23:58.476Z,100.00
2023-11-05T02:26:24.889Z,100.00
2023-11-05T02:28:51.563Z,100.00
2023-11-05T02:31:18.353Z,100.00
2023-11-05T02:33:45.820Z,99.84
2023-11-05T02:36:12.795Z,100.00
2023-11-05T02:38:39.929Z,100.00
2023-11-05T02:41:08.374Z,100.00
2023-11-05T02:43:35.236Z,100.00
2023-11-05T02:46:01.912Z,100.00
2023-11-05T02:48:28.729Z,100.00
2023-11-05T02:50:55.339Z,100.00
2023-11-05T02:53:22.424Z,100.00
2023-11-05T02:55:49.686Z,100.00
2023-11-05T02:58:16.490Z,100.00
2023-11-05T03:00:44.871Z,100.00
2023-11-05T03:03:15.450Z,100.00
2023-11-05T03:05:43.662Z,100.00
2023-11-05T03:08:11.478Z,100.00
2023-11-05T03:10:38.520Z,100.00
2023-11-05T03:13:05.131Z,100.00
2023-11-05T03:15:32.159Z,100.00
2023-11-05T03:17:59.047Z,100.00
2023-11-05T03:20:25.642Z,100.00
2023-11-05T03:22:52.109Z,100.00
2023-11-05T03:25:18.714Z,100.00
2023-11-05T03:27:45.238Z,100.00
2023-11-05T03:30:12.790Z,100.00
2023-11-05T03:32:39.329Z,100.00
2023-11-05T03:35:07.059Z,100.00
2023-11-05T03:37:33.596Z,100.00
2023-11-05T03:40:00.298Z,100.00
2023-11-05T03:42:27.171Z,100.00
2023-11-05T03:44:53.702Z,100.00
2023-11-05T03:47:20.453Z,100.00
2023-11-05T03:49:46.960Z,100.00
2023-11-05T03:52:13.627Z,100.00
2023-11-05T03:54:40.280Z,100.00
2023-11-05T03:57:07.752Z,100.00
2023-11-05T03:59:34.774Z,100.00
2023-11-05T04:02:01.277Z,100.00
2023-11-05T04:04:28.742Z,100.00
2023-11-05T04:06:55.278Z,100.00
2023-11-05T04:09:22.065Z,100.00
2023-11-05T04:11:48.705Z,100.00
2023-11-05T04:14:15.366Z,100.00
2023-11-05T04:16:42.032Z,100.00
2023-11-05T04:19:11.778Z,100.00
2023-11-05T04:21:38.353Z,100.00
2023-11-05T04:24:05.393Z,100.00
2023-11-05T04:26:31.896Z,100.00
2023-11-05T04:28:59.147Z,100.00
2023-11-05T04:31:25.983Z,100.00
2023-11-05T04:33:52.666Z,100.00
2023-11-05T04:36:19.194Z,100.00
2023-11-05T04:38:46.157Z,100.00
2023-11-05T04:41:12.687Z,100.00
2023-11-05T04:43:39.231Z,100.00
2023-11-05T04:46:05.805Z,100.00
2023-11-05T04:48:32.415Z,100.00
2023-11-05T04:50:59.056Z,100.00
2023-11-05T04:53:25.634Z,100.00
2023-11-05T04:55:52.168Z,100.00
2023-11-05T04:58:18.739Z,100.00
2023-11-05T05:00:45.264Z,100.00
2023-11-05T05:03:11.770Z,100.00
2023-11-05T05:05:38.555Z,100.00
2023-11-05T05:08:05.237Z,100.00
2023-11-05T05:10:31.858Z,100.00
2023-11-05T05:12:58.376Z,100.00
2023-11-05T05:15:24.806Z,100.00
2023-11-05T05:17:51.370Z,100.00
2023-11-05T05:20:17.965Z,100.00
2023-11-05T05:22:44.506Z,100.00
2023-11-05T05:25:11.557Z,100.00
2023-11-05T05:27:38.186Z,100.00
2023-11-05T05:30:05.485Z,100.00
2023-11-05T05:32:32.100Z,100.00
2023-11-05T05:34:58.628Z,100.00
2023-11-05T05:37:25.172Z,100.00
2023-11-05T05:39:51.730Z,100.00
2023-11-05T05:42:18.223Z,100.00
2023-11-05T05:44:45.613Z,100.00
2023-11-05T05:47:12.188Z,100.00
2023-11-05T05:49:38.815Z,100.00
2023-11-05T05:52:05.687Z,100.00
2023-11-05T05:54:32.535Z,100.00
2023-11-05T05:56:59.178Z,100.00
2023-11-05T05:59:25.675Z,100.00
2023-11-05T06:01:52.404Z,100.00
2023-11-05T06:04:19.060Z,100.00
2023-11-05T06:06:45.697Z,100.00
2023-11-05T06:09:17.458Z,100.00
2023-11-05T06:11:44.017Z,100.00
2023-11-05T06:14:10.589Z,100.00
2023-11-05T06:16:37.238Z,100.00
2023-11-05T06:19:03.783Z,100.00
2023-11-05T06:21:30.349Z,100.00
2023-11-05T06:23:56.854Z,100.00
2023-11-05T06:26:25.365Z,100.00
2023-11-05T06:28:51.963Z,100.00
2023-11-05T06:31:19.181Z,100.00
2023-11-05T06:33:45.775Z,100.00
2023-11-05T06:36:12.283Z,100.00
2023-11-05T06:38:38.823Z,100.00
2023-11-05T06:41:05.300Z,100.00
2023-11-05T06:43:31.854Z,100.00
2023-11-05T06:45:58.385Z,100.00
2023-11-05T06:48:25.275Z,100.00
2023-11-05T06:50:51.993Z,100.00
2023-11-05T06:53:18.598Z,100.00
2023-11-05T06:55:45.100Z,100.00
2023-11-05T06:58:12.551Z,100.00
2023-11-05T07:00:42.587Z,100.00
2023-11-05T07:03:09.257Z,100.00
2023-11-05T07:05:35.824Z,100.00
2023-11-05T07:08:04.678Z,100.00
2023-11-05T07:10:31.380Z,99.97
2023-11-05T07:12:57.925Z,100.00
2023-11-05T07:15:25.442Z,100.00
2023-11-05T07:17:52.056Z,98.87
2023-11-05T07:20:18.771Z,99.17
2023-11-05T07:22:47.653Z,99.59
2023-11-05T07:25:14.341Z,97.58
2023-11-05T07:27:40.908Z,97.14
2023-11-05T07:30:07.801Z,96.84
2023-11-05T07:32:34.410Z,95.30
2023-11-05T07:35:00.926Z,92.36
2023-11-05T07:37:29.004Z,90.25
2023-11-05T07:39:55.698Z,88.21
2023-11-05T07:42:22.602Z,86.79
2023-11-05T07:44:49.167Z,83.37
2023-11-05T07:47:16.493Z,86.26
2023-11-05T07:49:43.592Z,84.97
2023-11-05T07:52:10.334Z,83.96
2023-11-05T07:54:36.928Z,83.54
2023-11-05T07:57:03.897Z,83.94
2023-11-05T07:59:31.620Z,81.36
2023-11-05T08:01:59.186Z,81.69
2023-11-05T08:04:26.408Z,81.28
2023-11-05T08:06:55.738Z,77.85
2023-11-05T08:09:24.400Z,75.16
2023-11-05T08:11:51.138Z,75.58
2023-11-05T08:14:17.622Z,73.54
2023-11-05T08:16:44.053Z,74.02
2023-11-05T08:19:10.560Z,74.71
2023-11-05T08:21:37.040Z,73.82
2023-11-05T08:24:04.123Z,76.33
2023-11-05T08:26:30.879Z,75.63
2023-11-05T08:28:58.032Z,75.00
2023-11-05T08:31:25.259Z,72.74
2023-11-05T08:33:51.890Z,72.31
2023-11-05T08:36:18.559Z,74.21
2023-11-05T08:38:45.078Z,71.47
2023-11-05T08:41:11.485Z,73.36
2023-11-05T08:43:38.075Z,72.80
2023-11-05T08:46:05.018Z,72.73
2023-11-05T08:48:33.233Z,72.87
2023-11-05T08:50:59.849Z,71.38
2023-11-05T08:53:27.447Z,72.30
2023-11-05T08:55:54.194Z,71.74
2023-11-05T08:58:20.820Z,71.03
2023-11-05T09:00:47.477Z,72.23
2023-11-05T09:03:14.265Z,71.16
2023-11-05T09:05:41.924Z,69.69
2023-11-05T09:08:10.241Z,70.55
2023-11-05T09:10:37.068Z,70.13
2023-11-05T09:13:05.662Z,68.30
2023-11-05T09:15:32.636Z,67.51
2023-11-05T09:17:59.813Z,69.20
2023-11-05T09:20:26.589Z,67.36
2023-11-05T09:22:53.360Z,67.57
2023-11-05T09:25:20.088Z,68.21
2023-11-05T09:27:46.690Z,69.65
2023-11-05T09:30:13.981Z,67.72
2023-11-05T09:32:44.841Z,68.56
2023-11-05T09:35:16.206Z,67.98
2023-11-05T09:37:47.026Z,68.53
2023-11-05T09:40:16.746Z,68.11
2023-11-05T09:43:05.990Z,69.00
2023-11-05T09:45:36.877Z,68.79
2023-11-05T09:48:09.108Z,69.04
2023-11-05T09:50:41.788Z,68.65
2023-11-05T09:53:19.211Z,68.86
2023-11-05T09:55:47.883Z,68.84
2023-11-05T09:58:15.424Z,66.92
2023-11-05T10:00:42.122Z,67.55
2023-11-05T10:03:11.030Z,67.84
2023-11-05T10:05:43.896Z,68.18
2023-11-05T10:08:11.761Z,68.34
2023-11-05T10:10:45.158Z,67.54
2023-11-05T10:13:13.080Z,68.62
2023-11-05T10:15:41.348Z,68.18
2023-11-05T10:18:19.747Z,68.89
2023-11-05T10:20:51.748Z,68.34
2023-11-05T10:23:18.723Z,68.00
2023-11-05T10:25:49.441Z,69.64
2023-11-05T10:28:16.105Z,68.94
2023-11-05T10:30:45.704Z,69.07
2023-11-05T10:33:13.417Z,68.97
2023-11-05T10:35:41.163Z,70.28
2023-11-05T10:38:11.815Z,70.49
2023-11-05T10:40:39.515Z,69.48
2023-11-05T10:43:08.055Z,68.62
2023-11-05T10:45:35.797Z,67.74
2023-11-05T10:48:03.993Z,69.44
2023-11-05T10:50:32.823Z,68.26
2023-11-05T10:53:01.002Z,67.73
2023-11-05T10:55:38.933Z,67.37
2023-11-05T10:58:17.735Z,68.64
2023-11-05T11:00:50.620Z,67.39
2023-11-05T11:03:19.406Z,66.82
2023-11-05T11:05:46.223Z,65.40
2023-11-05T11:08:22.551Z,65.37
2023-11-05T11:10:50.469Z,65.44
2023-11-05T11:13:19.259Z,64.58
2023-11-05T11:15:52.721Z,64.42
2023-11-05T11:18:25.331Z,64.93
2023-11-05T11:20:55.930Z,65.73
2023-11-05T11:23:23.762Z,66.03
2023-11-05T11:25:59.377Z,65.83
2023-11-05T11:28:30.329Z,65.36
2023-11-05T11:30:57.949Z,64.12
2023-11-05T11:33:26.222Z,63.77
2023-11-05T11:35:52.891Z,64.41
2023-11-05T11:38:19.635Z,65.80
2023-11-05T11:40:58.848Z,67.16
2023-11-05T11:43:27.823Z,69.61
2023-11-05T11:45:54.687Z,73.08
2023-11-05T11:48:26.649Z,71.56
2023-11-05T11:51:11.323Z,70.95
2023-11-05T11:53:41.107Z,74.26
2023-11-05T11:56:08.706Z,74.97
2023-11-05T11:58:40.227Z,73.41
2023-11-05T12:01:16.897Z,75.09
2023-11-05T12:03:44.721Z,76.08
2023-11-05T12:06:11.679Z,76.46
2023-11-05T12:08:46.741Z,77.05
2023-11-05T12:11:20.267Z,76.92
2023-11-05T12:13:48.127Z,77.57
2023-11-05T12:16:18.868Z,77.09
2023-11-05T12:18:46.544Z,80.05
2023-11-05T12:21:15.635Z,77.76
2023-11-05T12:23:43.197Z,77.77
2023-11-05T12:26:11.663Z,79.07
2023-11-05T12:28:38.485Z,78.97
2023-11-05T12:31:07.904Z,78.63
2023-11-05T12:33:36.078Z,77.75
2023-11-05T12:36:03.665Z,78.45
2023-11-05T12:38:30.871Z,76.32
2023-11-05T12:40:57.727Z,77.71
2023-11-05T12:43:25.509Z,78.92
2023-11-05T12:45:56.554Z,81.39
2023-11-05T12:48:31.015Z,82.39
2023-11-05T12:50:59.836Z,84.86
2023-11-05T12:53:26.483Z,86.26
2023-11-05T12:56:01.787Z,85.56
2023-11-05T12:58:28.349Z,87.00
2023-11-05T13:00:54.997Z,87.94
2023-11-05T13:03:21.857Z,90.19
2023-11-05T13:05:48.689Z,89.34
2023-11-05T13:08:15.351Z,91.15
2023-11-05T13:10:42.883Z,90.47
2023-11-05T13:13:09.412Z,92.09
2023-11-05T13:15:35.903Z,87.49
2023-11-05T13:18:03.754Z,90.32
2023-11-05T13:20:30.283Z,89.06
2023-11-05T13:22:56.728Z,89.90
2023-11-05T13:25:23.834Z,88.27
2023-11-05T13:27:50.519Z,89.80
2023-11-05T13:30:17.891Z,86.80
2023-11-05T13:32:47.973Z,89.17
2023-11-05T13:35:19.038Z,90.58
2023-11-05T13:37:47.153Z,89.71
2023-11-05T13:40:14.206Z,89.91
2023-11-05T13:42:40.966Z,88.56
2023-11-05T13:45:10.763Z,89.39
2023-11-05T13:47:38.447Z,88.50
2023-11-05T13:50:08.549Z,87.54
2023-11-05T13:52:36.126Z,88.17
2023-11-05T13:55:03.658Z,89.78
2023-11-05T13:57:30.244Z,87.79
2023-11-05T13:59:58.327Z,87.24
2023-11-05T14:02:28.329Z,86.43
2023-11-05T14:04:54.979Z,89.44
2023-11-05T14:07:21.701Z,92.34
2023-11-05T14:09:48.660Z,93.27
2023-11-05T14:12:15.575Z,93.44
2023-11-05T14:14:42.321Z,96.80
2023-11-05T14:17:08.980Z,96.01
2023-11-05T14:19:35.594Z,97.47
2023-11-05T14:22:02.016Z,97.08
2023-11-05T14:24:29.738Z,99.65
2023-11-05T14:26:56.390Z,98.26
2023-11-05T14:29:24.057Z,96.48
2023-11-05T14:31:50.849Z,97.31
2023-11-05T14:34:17.676Z,99.44
2023-11-05T14:36:44.386Z,98.62
2023-11-05T14:39:11.351Z,100.00
2023-11-05T14:41:39.645Z,100.00
2023-11-05T14:44:07.683Z,99.44
2023-11-05T14:46:34.944Z,97.66
2023-11-05T14:49:02.732Z,97.65
2023-11-05T14:51:29.650Z,97.19
2023-11-05T14:53:56.202Z,96.74
2023-11-05T14:56:22.640Z,97.18
2023-11-05T14:58:49.239Z,95.48
2023-11-05T15:01:18.841Z,96.02
2023-11-05T15:03:48.604Z,96.67
2023-11-05T15:06:15.222Z,97.69
2023-11-05T15:08:42.046Z,98.99
2023-11-05T15:11:08.919Z,96.96
2023-11-05T15:13:35.533Z,97.74
2023-11-05T15:16:02.436Z,95.99
2023-11-05T15:18:29.082Z,97.41
2023-11-05T15:20:55.681Z,97.28
2023-11-05T15:23:22.155Z,98.98
2023-11-05T15:25:50.324Z,99.67
2023-11-05T15:28:24.925Z,100.00
2023-11-05T15:30:52.049Z,98.54
2023-11-05T15:33:18.770Z,97.50
2023-11-05T15:35:45.754Z,98.40
2023-11-05T15:38:12.321Z,98.05
2023-11-05T15:40:38.727Z,100.00
2023-11-05T15:43:05.771Z,100.00
2023-11-05T15:45:32.263Z,100.00
2023-11-05T15:47:58.804Z,100.00
2023-11-05T15:50:25.368Z,100.00
2023-11-05T15:52:52.224Z,100.00
2023-11-05T15:55:19.589Z,100.00
2023-11-05T15:57:46.193Z,100.00
2023-11-05T16:00:16.332Z,100.00
2023-11-05T16:02:44.109Z,100.00
2023-11-05T16:05:12.728Z,100.00
2023-11-05T16:07:42.157Z,100.00
2023-11-05T16:10:09.557Z,100.00
2023-11-05T16:12:39.263Z,100.00
2023-11-05T16:15:07.932Z,100.00
2023-11-05T16:17:35.100Z,100.00
2023-11-05T16:20:02.657Z,100.00
2023-11-05T16:22:29.437Z,100.00
2023-11-05T16:24:56.068Z,100.00
2023-11-05T16:27:23.326Z,100.00
2023-11-05T16:29:49.929Z,100.00
2023-11-05T16:32:16.484Z,100.00
2023-11-05T16:34:43.127Z,100.00
2023-11-05T16:37:10.568Z,100.00
2023-11-05T16:39:39.992Z,100.00
2023-11-05T16:42:07.689Z,100.00
2023-11-05T16:44:34.220Z,100.00
2023-11-05T16:47:01.363Z,100.00
2023-11-05T16:49:30.989Z,100.00
2023-11-05T16:51:58.455Z,100.00
2023-11-05T16:54:28.626Z,100.00
2023-11-05T16:56:57.011Z,100.00
2023-11-05T16:59:23.967Z,100.00
2023-11-05T17:01:51.243Z,100.00
2023-11-05T17:04:23.038Z,100.00
2023-11-05T17:06:49.813Z,100.00
2023-11-05T17:09:16.670Z,100.00
2023-11-05T17:11:44.629Z,100.00
2023-11-05T17:14:12.555Z,100.00
2023-11-05T17:16:43.502Z,100.00
2023-11-05T17:19:11.981Z,100.00
2023-11-05T17:21:39.565Z,100.00
2023-11-05T17:24:07.133Z,100.00
2023-11-05T17:26:35.546Z,100.00
2023-11-05T17:29:03.837Z,100.00
2023-11-05T17:31:31.429Z,100.00
2023-11-05T17:33:58.655Z,100.00
2023-11-05T17:36:25.475Z,100.00
2023-11-05T17:38:52.741Z,100.00
2023-11-05T17:41:22.209Z,100.00
2023-11-05T17:43:49.895Z,100.00
2023-11-05T17:46:17.423Z,100.00
2023-11-05T17:48:44.627Z,100.00
2023-11-05T17:51:11.657Z,100.00
2023-11-05T17:53:38.348Z,99.97
2023-11-05T17:56:05.937Z,100.00
2023-11-05T17:58:35.106Z,100.00
2023-11-05T18:01:01.939Z,100.00
2023-11-05T18:03:28.875Z,100.00
2023-11-05T18:05:57.067Z,100.00
2023-11-05T18:08:24.855Z,100.00
2023-11-05T18:10:53.942Z,100.00
2023-11-05T18:13:22.035Z,99.84
2023-11-05T18:15:50.088Z,100.00
2023-11-05T18:18:16.970Z,100.00
2023-11-05T18:20:43.867Z,97.45
2023-11-05T18:23:10.521Z,96.90
2023-11-05T18:25:37.431Z,98.21
2023-11-05T18:28:04.950Z,97.21
2023-11-05T18:30:31.837Z,99.21
2023-11-05T18:32:58.420Z,98.69
2023-11-05T18:35:25.246Z,98.51
2023-11-05T18:37:52.882Z,100.00
2023-11-05T18:40:19.606Z,100.00
2023-11-05T18:42:46.286Z,98.23
2023-11-05T18:45:12.976Z,99.64
2023-11-05T18:47:39.741Z,98.41
2023-11-05T18:50:06.789Z,100.00
2023-11-05T18:52:33.700Z,100.00
2023-11-05T18:55:00.402Z,100.00
2023-11-05T18:57:28.937Z,100.00
2023-11-05T18:59:55.895Z,100.00
2023-11-05T19:02:22.733Z,100.00
2023-11-05T19:04:49.435Z,100.00
2023-11-05T19:07:16.301Z,100.00
2023-11-05T19:09:43.427Z,100.00
2023-11-05T19:12:10.243Z,100.00
2023-11-05T19:14:43.815Z,100.00
2023-11-05T19:17:10.500Z,100.00
2023-11-05T19:19:37.201Z,100.00
2023-11-05T19:22:10.244Z,100.00
2023-11-05T19:24:41.267Z,100.00
2023-11-05T19:27:09.964Z,100.00
2023-11-05T19:29:38.874Z,100.00
2023-11-05T19:32:08.450Z,100.00
2023-11-05T19:34:36.600Z,100.00
2023-11-05T19:37:03.500Z,100.00
2023-11-05T19:39:30.007Z,100.00
2023-11-05T19:41:56.549Z,100.00
2023-11-05T19:44:23.098Z,100.00
2023-11-05T19:46:51.974Z,100.00
2023-11-05T19:49:18.649Z,100.00
2023-11-05T19:51:45.420Z,100.00
2023-11-05T19:54:12.944Z,100.00
2023-11-05T19:56:39.521Z,100.00
2023-11-05T19:59:08.201Z,100.00
2023-11-05T20:01:34.956Z,100.00
2023-11-05T20:04:03.201Z,100.00
2023-11-05T20:06:30.191Z,100.00
2023-11-05T20:08:56.847Z,100.00
2023-11-05T20:11:23.458Z,100.00
2023-11-05T20:13:50.554Z,100.00
2023-11-05T20:16:17.740Z,100.00
2023-11-05T20:18:45.613Z,100.00
2023-11-05T20:21:16.178Z,100.00
2023-11-05T20:23:42.817Z,100.00
2023-11-05T20:28:41.053Z,99.91
2023-11-05T20:31:09.127Z,100.00
2023-11-05T20:33:35.767Z,100.00
2023-11-05T20:36:02.409Z,99.55
2023-11-05T20:38:28.933Z,99.15
2023-11-05T20:40:55.389Z,98.56
2023-11-05T20:43:23.288Z,97.62
2023-11-05T20:45:50.596Z,95.10
2023-11-05T20:48:17.618Z,95.95
2023-11-05T20:50:44.663Z,97.73
2023-11-05T20:53:11.387Z,95.51
2023-11-05T20:55:38.469Z,94.83
2023-11-05T20:58:07.404Z,94.86
2023-11-05T21:00:36.692Z,94.65
2023-11-05T21:03:04.138Z,94.95
2023-11-05T21:05:30.887Z,94.62
2023-11-05T21:07:59.540Z,93.89
2023-11-05T21:10:30.690Z,93.48
2023-11-05T21:12:58.425Z,92.56
2023-11-05T21:15:24.805Z,92.75
2023-11-05T21:17:51.388Z,92.99
2023-11-05T21:20:18.104Z,93.51
2023-11-05T21:22:45.608Z,91.95
2023-11-05T21:25:12.985Z,92.62
2023-11-05T21:27:40.365Z,90.92
2023-11-05T21:30:10.726Z,91.19
2023-11-05T21:32:40.513Z,91.98
2023-11-05T21:35:07.677Z,91.18
2023-11-05T21:37:34.453Z,91.03
2023-11-05T21:40:01.196Z,92.07
2023-11-05T21:42:28.396Z,92.43
2023-11-05T21:44:55.113Z,92.49
2023-11-05T21:47:22.403Z,93.24
2023-11-05T21:49:49.364Z,92.30
2023-11-05T21:52:16.847Z,92.52
2023-11-05T21:54:45.170Z,91.35
2023-11-05T21:57:12.155Z,93.53
2023-11-05T21:59:39.036Z,92.79
2023-11-05T22:02:05.827Z,94.01
2023-11-05T22:04:35.635Z,93.02
2023-11-05T22:07:03.922Z,93.44
2023-11-05T22:09:31.468Z,93.00
2023-11-05T22:11:58.091Z,92.30
2023-11-05T22:14:27.345Z,93.31
2023-11-05T22:16:54.185Z,92.75
2023-11-05T22:19:21.557Z,94.60
2023-11-05T22:21:48.629Z,93.09
2023-11-05T22:24:16.718Z,92.82
2023-11-05T22:26:43.509Z,92.46
2023-11-05T22:29:12.462Z,91.37
2023-11-05T22:31:39.023Z,90.80
2023-11-05T22:34:05.710Z,90.88
2023-11-05T22:36:33.423Z,91.20
2023-11-05T22:39:00.254Z,90.21
2023-11-05T22:41:26.861Z,91.18
2023-11-05T22:43:53.485Z,91.76
2023-11-05T22:46:19.956Z,91.22
2023-11-05T22:48:46.433Z,91.90
2023-11-05T22:51:18.217Z,91.99
2023-11-05T22:53:45.640Z,90.70
2023-11-05T22:56:12.796Z,92.64
2023-11-05T22:58:40.414Z,93.00
2023-11-05T23:17:23.952Z,99.10
2023-11-05T23:19:50.747Z,98.12
2023-11-05T23:22:17.314Z,97.34
2023-11-05T23:24:45.290Z,95.62
2023-11-05T23:27:11.868Z,94.52
2023-11-05T23:29:38.480Z,95.35
2023-11-05T23:32:05.116Z,95.83
2023-11-05T23:34:31.771Z,95.45
2023-11-05T23:36:59.481Z,95.09
2023-11-05T23:39:26.016Z,95.08
2023-11-05T23:41:52.534Z,95.80
2023-11-05T23:44:19.119Z,96.92
2023-11-05T23:46:45.789Z,96.31
2023-11-05T23:49:13.157Z,94.99
2023-11-05T23:51:39.753Z,95.75
2023-11-05T23:54:06.295Z,96.47
2023-11-05T23:56:32.855Z,96.40
2023-11-05T23:59:01.792Z,96.24
